sensor_id;sensor_type;location;lat;lon;timestamp;pressure;altitude;pressure_sealevel;temperature;humidity
33185;BME280;19550;42.872;25.494;2022-12-07T00:01:22;96390.28;;;1.72;100.00
33185;BME280;19550;42.872;25.494;2022-12-07T00:03:51;96387.22;;;1.64;100.00
33185;BME280;19550;42.872;25.494;2022-12-07T00:06:19;96386.94;;;1.65;100.00
33185;BME280;19550;42.872;25.494;2022-12-07T00:08:47;96377.91;;;1.59;100.00
33185;BME280;19550;42.872;25.494;2022-12-07T00:11:15;96385.31;;;1.69;100.00
33185;BME280;19550;42.872;25.494;2022-12-07T00:13:43;96390.28;;;1.77;100.00
33185;BME280;19550;42.872;25.494;2022-12-07T00:16:12;96396.94;;;1.91;100.00
33185;BME280;19550;42.872;25.494;2022-12-07T00:18:41;96395.25;;;1.85;100.00
33185;BME280;19550;42.872;25.494;2022-12-07T00:21:10;96377.78;;;1.91;100.00
33185;BME280;19550;42.872;25.494;2022-12-07T00:23:38;96407.13;;;2.16;100.00
33185;BME280;19550;42.872;25.494;2022-12-07T00:26:05;96403.84;;;2.09;100.00
33185;BME280;19550;42.872;25.494;2022-12-07T00:28:33;96407.91;;;2.07;100.00
33185;BME280;19550;42.872;25.494;2022-12-07T00:31:02;96417.81;;;2.13;100.00
33185;BME280;19550;42.872;25.494;2022-12-07T00:33:29;96407.41;;;2.20;100.00
33185;BME280;19550;42.872;25.494;2022-12-07T00:35:58;96423.06;;;2.29;100.00
33185;BME280;19550;42.872;25.494;2022-12-07T00:38:27;96426.03;;;2.28;100.00
33185;BME280;19550;42.872;25.494;2022-12-07T00:40:56;96417.84;;;2.28;100.00
33185;BME280;19550;42.872;25.494;2022-12-07T00:43:23;96413.25;;;2.44;100.00
33185;BME280;19550;42.872;25.494;2022-12-07T00:45:50;96415.44;;;2.42;100.00
33185;BME280;19550;42.872;25.494;2022-12-07T00:48:17;96427.44;;;2.35;100.00
33185;BME280;19550;42.872;25.494;2022-12-07T00:50:43;96423.94;;;2.45;100.00
33185;BME280;19550;42.872;25.494;2022-12-07T00:53:12;96419.25;;;2.35;100.00
33185;BME280;19550;42.872;25.494;2022-12-07T00:55:39;96419.81;;;2.37;100.00
33185;BME280;19550;42.872;25.494;2022-12-07T00:58:06;96409.69;;;2.43;100.00
33185;BME280;19550;42.872;25.494;2022-12-07T01:00:33;96423.13;;;2.45;100.00
33185;BME280;19550;42.872;25.494;2022-12-07T01:03:01;96421.78;;;2.57;100.00
33185;BME280;19550;42.872;25.494;2022-12-07T01:05:28;96414.66;;;2.66;100.00
33185;BME280;19550;42.872;25.494;2022-12-07T01:07:55;96413.06;;;2.65;100.00
33185;BME280;19550;42.872;25.494;2022-12-07T01:10:23;96404.84;;;2.70;100.00
33185;BME280;19550;42.872;25.494;2022-12-07T01:12:50;96405.13;;;2.69;100.00
33185;BME280;19550;42.872;25.494;2022-12-07T01:15:17;96405.38;;;2.67;100.00
33185;BME280;19550;42.872;25.494;2022-12-07T01:17:44;96389.81;;;2.78;100.00
33185;BME280;19550;42.872;25.494;2022-12-07T01:20:12;96393.63;;;2.77;100.00
33185;BME280;19550;42.872;25.494;2022-12-07T01:22:40;96384.34;;;2.93;100.00
33185;BME280;19550;42.872;25.494;2022-12-07T01:25:08;96375.88;;;3.05;100.00
33185;BME280;19550;42.872;25.494;2022-12-07T01:27:36;96381.59;;;2.93;100.00
33185;BME280;19550;42.872;25.494;2022-12-07T01:30:06;96390.09;;;3.02;100.00
33185;BME280;19550;42.872;25.494;2022-12-07T01:32:33;96384.88;;;3.00;100.00
33185;BME280;19550;42.872;25.494;2022-12-07T01:35:00;96382.44;;;2.89;100.00
33185;BME280;19550;42.872;25.494;2022-12-07T01:37:27;96362.69;;;2.87;100.00
33185;BME280;19550;42.872;25.494;2022-12-07T01:39:54;96363.25;;;2.94;100.00
33185;BME280;19550;42.872;25.494;2022-12-07T01:42:21;96372.03;;;3.01;100.00
33185;BME280;19550;42.872;25.494;2022-12-07T01:48:05;96357.50;;;3.20;100.00
33185;BME280;19550;42.872;25.494;2022-12-07T01:50:33;96354.22;;;3.24;100.00
33185;BME280;19550;42.872;25.494;2022-12-07T01:53:03;96353.69;;;3.06;100.00
33185;BME280;19550;42.872;25.494;2022-12-07T01:55:32;96352.03;;;2.95;100.00
33185;BME280;19550;42.872;25.494;2022-12-07T01:58:00;96353.13;;;2.99;100.00
33185;BME280;19550;42.872;25.494;2022-12-07T02:00:27;96346.31;;;3.12;100.00
33185;BME280;19550;42.872;25.494;2022-12-07T02:02:59;96356.72;;;3.05;100.00
33185;BME280;19550;42.872;25.494;2022-12-07T02:05:30;96351.22;;;3.10;100.00
33185;BME280;19550;42.872;25.494;2022-12-07T02:07:57;96341.66;;;3.02;100.00
33185;BME280;19550;42.872;25.494;2022-12-07T02:10:27;96356.13;;;3.28;100.00
33185;BME280;19550;42.872;25.494;2022-12-07T02:13:02;96353.94;;;3.20;100.00
33185;BME280;19550;42.872;25.494;2022-12-07T02:15:39;96353.41;;;3.08;100.00
33185;BME280;19550;42.872;25.494;2022-12-07T02:18:14;96351.22;;;3.00;100.00
33185;BME280;19550;42.872;25.494;2022-12-07T02:20:51;96349.56;;;3.14;100.00
33185;BME280;19550;42.872;25.494;2022-12-07T02:23:41;96352.03;;;3.15;100.00
33185;BME280;19550;42.872;25.494;2022-12-07T02:26:23;96350.13;;;3.16;100.00
33185;BME280;19550;42.872;25.494;2022-12-07T02:29:15;96347.91;;;3.28;100.00
33185;BME280;19550;42.872;25.494;2022-12-07T02:31:45;96348.47;;;3.30;100.00
33185;BME280;19550;42.872;25.494;2022-12-07T02:34:20;96347.38;;;3.26;100.00
33185;BME280;19550;42.872;25.494;2022-12-07T02:36:54;96353.94;;;3.20;100.00
33185;BME280;19550;42.872;25.494;2022-12-07T02:39:30;96352.84;;;3.21;100.00
33185;BME280;19550;42.872;25.494;2022-12-07T02:42:03;96350.13;;;3.21;100.00
33185;BME280;19550;42.872;25.494;2022-12-07T02:44:36;96337.81;;;3.18;100.00
33185;BME280;19550;42.872;25.494;2022-12-07T02:47:05;96337.81;;;3.08;100.00
33185;BME280;19550;42.872;25.494;2022-12-07T02:49:33;96338.34;;;3.15;100.00
33185;BME280;19550;42.872;25.494;2022-12-07T02:52:02;96343.81;;;3.20;100.00
33185;BME280;19550;42.872;25.494;2022-12-07T02:54:28;96338.59;;;3.29;100.00
33185;BME280;19550;42.872;25.494;2022-12-07T02:57:03;96337.22;;;3.27;100.00
33185;BME280;19550;42.872;25.494;2022-12-07T02:59:40;96324.38;;;3.17;100.00
33185;BME280;19550;42.872;25.494;2022-12-07T03:02:20;96334.75;;;3.40;100.00
33185;BME280;19550;42.872;25.494;2022-12-07T03:04:55;96344.63;;;3.36;100.00
33185;BME280;19550;42.872;25.494;2022-12-07T03:07:34;96336.38;;;3.46;100.00
33185;BME280;19550;42.872;25.494;2022-12-07T03:10:10;96336.13;;;3.38;100.00
33185;BME280;19550;42.872;25.494;2022-12-07T03:12:44;96344.31;;;3.48;100.00
33185;BME280;19550;42.872;25.494;2022-12-07T03:15:18;96341.06;;;3.36;100.00
33185;BME280;19550;42.872;25.494;2022-12-07T03:17:47;96339.94;;;3.42;100.00
33185;BME280;19550;42.872;25.494;2022-12-07T03:20:19;96355.59;;;3.31;100.00
33185;BME280;19550;42.872;25.494;2022-12-07T03:22:48;96351.75;;;3.27;100.00
33185;BME280;19550;42.872;25.494;2022-12-07T03:25:17;96343.53;;;3.42;100.00
33185;BME280;19550;42.872;25.494;2022-12-07T03:27:48;96343.78;;;3.41;100.00
33185;BME280;19550;42.872;25.494;2022-12-07T03:30:20;96342.13;;;3.40;100.00
33185;BME280;19550;42.872;25.494;2022-12-07T03:32:50;96330.91;;;3.46;100.00
33185;BME280;19550;42.872;25.494;2022-12-07T03:35:22;96329.00;;;3.37;100.00
33185;BME280;19550;42.872;25.494;2022-12-07T03:37:56;96338.59;;;3.44;100.00
33185;BME280;19550;42.872;25.494;2022-12-07T03:40:29;96330.63;;;3.48;100.00
33185;BME280;19550;42.872;25.494;2022-12-07T03:42:58;96337.22;;;3.42;100.00
33185;BME280;19550;42.872;25.494;2022-12-07T03:45:33;96344.06;;;3.49;100.00
33185;BME280;19550;42.872;25.494;2022-12-07T03:48:07;96325.41;;;3.46;100.00
33185;BME280;19550;42.872;25.494;2022-12-07T03:50:43;96341.84;;;3.56;100.00
33185;BME280;19550;42.872;25.494;2022-12-07T03:53:16;96342.69;;;3.52;100.00
33185;BME280;19550;42.872;25.494;2022-12-07T03:55:46;96335.81;;;3.65;100.00
33185;BME280;19550;42.872;25.494;2022-12-07T03:58:16;96340.19;;;3.66;100.00
33185;BME280;19550;42.872;25.494;2022-12-07T04:00:46;96339.38;;;3.65;100.00
33185;BME280;19550;42.872;25.494;2022-12-07T04:03:13;96319.38;;;3.54;100.00
33185;BME280;19550;42.872;25.494;2022-12-07T04:05:40;96336.91;;;3.58;100.00
33185;BME280;19550;42.872;25.494;2022-12-07T04:08:09;96335.78;;;3.59;100.00
33185;BME280;19550;42.872;25.494;2022-12-07T04:10:36;96329.47;;;3.69;100.00
33185;BME280;19550;42.872;25.494;2022-12-07T04:13:03;96323.19;;;3.69;100.00
33185;BME280;19550;42.872;25.494;2022-12-07T04:15:30;96313.84;;;3.70;100.00
33185;BME280;19550;42.872;25.494;2022-12-07T04:17:58;96318.81;;;3.63;100.00
33185;BME280;19550;42.872;25.494;2022-12-07T04:20:25;96316.03;;;3.68;100.00
33185;BME280;19550;42.872;25.494;2022-12-07T04:22:52;96316.03;;;3.68;100.00
33185;BME280;19550;42.872;25.494;2022-12-07T04:25:19;96311.66;;;3.67;100.00
33185;BME280;19550;42.872;25.494;2022-12-07T04:27:45;96316.03;;;3.73;100.00
33185;BME280;19550;42.872;25.494;2022-12-07T04:30:12;96319.88;;;3.67;100.00
33185;BME280;19550;42.872;25.494;2022-12-07T04:32:39;96321.56;;;3.63;100.00
33185;BME280;19550;42.872;25.494;2022-12-07T04:35:08;96323.22;;;3.58;100.00
33185;BME280;19550;42.872;25.494;2022-12-07T04:37:35;96324.56;;;3.71;100.00
33185;BME280;19550;42.872;25.494;2022-12-07T04:40:06;96326.94;;;3.88;100.00
33185;BME280;19550;42.872;25.494;2022-12-07T04:42:33;96325.38;;;3.67;100.00
33185;BME280;19550;42.872;25.494;2022-12-07T04:45:00;96318.47;;;3.79;100.00
33185;BME280;19550;42.872;25.494;2022-12-07T04:47:26;96322.31;;;3.73;100.00
33185;BME280;19550;42.872;25.494;2022-12-07T04:49:53;96312.16;;;3.84;100.00
33185;BME280;19550;42.872;25.494;2022-12-07T04:52:21;96319.28;;;3.80;100.00
33185;BME280;19550;42.872;25.494;2022-12-07T04:54:48;96318.22;;;3.76;100.00
33185;BME280;19550;42.872;25.494;2022-12-07T04:57:15;96322.03;;;3.80;100.00
33185;BME280;19550;42.872;25.494;2022-12-07T04:59:42;96322.31;;;3.73;100.00
33185;BME280;19550;42.872;25.494;2022-12-07T05:02:09;96309.78;;;3.62;100.00
33185;BME280;19550;42.872;25.494;2022-12-07T05:04:36;96308.13;;;3.61;100.00
33185;BME280;19550;42.872;25.494;2022-12-07T05:07:02;96311.13;;;3.65;100.00
33185;BME280;19550;42.872;25.494;2022-12-07T05:09:31;96312.78;;;3.66;100.00
33185;BME280;19550;42.872;25.494;2022-12-07T05:11:57;96303.75;;;3.65;100.00
33185;BME280;19550;42.872;25.494;2022-12-07T05:14:24;96306.72;;;3.79;100.00
33185;BME280;19550;42.872;25.494;2022-12-07T05:16:53;96308.63;;;3.73;100.00
33185;BME280;19550;42.872;25.494;2022-12-07T05:19:20;96306.44;;;3.75;100.00
33185;BME280;19550;42.872;25.494;2022-12-07T05:21:47;96288.69;;;3.57;100.00
33185;BME280;19550;42.872;25.494;2022-12-07T05:24:15;96284.25;;;3.72;100.00
33185;BME280;19550;42.872;25.494;2022-12-07T05:26:44;96297.66;;;3.78;100.00
33185;BME280;19550;42.872;25.494;2022-12-07T05:29:13;96289.69;;;3.82;100.00
33185;BME280;19550;42.872;25.494;2022-12-07T05:31:40;96291.06;;;3.84;100.00
33185;BME280;19550;42.872;25.494;2022-12-07T05:34:07;96285.03;;;3.82;100.00
33185;BME280;19550;42.872;25.494;2022-12-07T05:36:34;96276.84;;;3.77;100.00
33185;BME280;19550;42.872;25.494;2022-12-07T05:39:01;96294.81;;;4.04;100.00
33185;BME280;19550;42.872;25.494;2022-12-07T05:41:28;96289.03;;;4.05;100.00
33185;BME280;19550;42.872;25.494;2022-12-07T05:44:13;96286.34;;;3.95;100.00
33185;BME280;19550;42.872;25.494;2022-12-07T05:46:40;96287.75;;;3.87;100.00
33185;BME280;19550;42.872;25.494;2022-12-07T05:49:07;96280.63;;;3.81;100.00
33185;BME280;19550;42.872;25.494;2022-12-07T05:51:34;96285.00;;;3.87;100.00
33185;BME280;19550;42.872;25.494;2022-12-07T05:54:01;96279.78;;;3.86;100.00
33185;BME280;19550;42.872;25.494;2022-12-07T05:56:27;96287.75;;;3.87;100.00
33185;BME280;19550;42.872;25.494;2022-12-07T05:58:54;96294.84;;;3.93;100.00
33185;BME280;19550;42.872;25.494;2022-12-07T06:01:40;96288.22;;;3.99;100.00
33185;BME280;19550;42.872;25.494;2022-12-07T06:04:07;96292.38;;;3.97;100.00
33185;BME280;19550;42.872;25.494;2022-12-07T06:06:34;96292.66;;;3.95;100.00
33185;BME280;19550;42.872;25.494;2022-12-07T06:09:01;96289.63;;;3.97;100.00
33185;BME280;19550;42.872;25.494;2022-12-07T06:11:28;96292.09;;;3.98;100.00
33185;BME280;19550;42.872;25.494;2022-12-07T06:14:13;96295.63;;;4.04;100.00
33185;BME280;19550;42.872;25.494;2022-12-07T06:16:41;96294.22;;;4.07;100.00
33185;BME280;19550;42.872;25.494;2022-12-07T06:19:08;96292.81;;;4.14;100.00
33185;BME280;19550;42.872;25.494;2022-12-07T06:21:35;96279.66;;;4.16;100.00
33185;BME280;19550;42.872;25.494;2022-12-07T06:24:01;96292.53;;;4.16;100.00
33185;BME280;19550;42.872;25.494;2022-12-07T06:26:28;96286.00;;;4.12;100.00
33185;BME280;19550;42.872;25.494;2022-12-07T06:28:55;96299.09;;;4.20;100.00
33185;BME280;19550;42.872;25.494;2022-12-07T06:31:22;96289.41;;;4.32;100.00
33185;BME280;19550;42.872;25.494;2022-12-07T06:33:50;96291.84;;;4.39;100.00
33185;BME280;19550;42.872;25.494;2022-12-07T06:36:17;96282.81;;;4.33;100.00
33185;BME280;19550;42.872;25.494;2022-12-07T06:38:44;96289.09;;;4.44;100.00
33185;BME280;19550;42.872;25.494;2022-12-07T06:41:11;96293.44;;;4.50;100.00
33185;BME280;19550;42.872;25.494;2022-12-07T06:43:38;96298.38;;;4.48;100.00
33185;BME280;19550;42.872;25.494;2022-12-07T06:46:05;96296.69;;;4.57;100.00
33185;BME280;19550;42.872;25.494;2022-12-07T06:48:32;96307.16;;;4.50;100.00
33185;BME280;19550;42.872;25.494;2022-12-07T06:51:00;96304.66;;;4.54;100.00
33185;BME280;19550;42.872;25.494;2022-12-07T06:53:27;96293.94;;;4.52;100.00
33185;BME280;19550;42.872;25.494;2022-12-07T06:55:54;96307.13;;;4.55;100.00
33185;BME280;19550;42.872;25.494;2022-12-07T06:58:21;96289.50;;;4.61;100.00
33185;BME280;19550;42.872;25.494;2022-12-07T07:00:48;96298.84;;;4.60;100.00
33185;BME280;19550;42.872;25.494;2022-12-07T07:03:15;96300.75;;;4.60;100.00
33185;BME280;19550;42.872;25.494;2022-12-07T07:05:43;96304.84;;;4.67;100.00
33185;BME280;19550;42.872;25.494;2022-12-07T07:08:12;96300.44;;;4.66;100.00
33185;BME280;19550;42.872;25.494;2022-12-07T07:10:39;96289.31;;;4.87;100.00
33185;BME280;19550;42.872;25.494;2022-12-07T07:13:06;96309.88;;;4.89;100.00
33185;BME280;19550;42.872;25.494;2022-12-07T07:15:34;96304.44;;;4.84;100.00
33185;BME280;19550;42.872;25.494;2022-12-07T07:18:01;96300.84;;;4.89;100.00
33185;BME280;19550;42.872;25.494;2022-12-07T07:20:29;96296.38;;;4.93;100.00
33185;BME280;19550;42.872;25.494;2022-12-07T07:22:56;96307.53;;;5.06;100.00
33185;BME280;19550;42.872;25.494;2022-12-07T07:25:24;96297.97;;;5.04;100.00
33185;BME280;19550;42.872;25.494;2022-12-07T07:27:51;96301.19;;;5.11;100.00
33185;BME280;19550;42.872;25.494;2022-12-07T07:30:18;96312.22;;;5.35;100.00
33185;BME280;19550;42.872;25.494;2022-12-07T07:32:45;96309.25;;;5.31;100.00
33185;BME280;19550;42.872;25.494;2022-12-07T07:35:11;96304.28;;;5.33;100.00
33185;BME280;19550;42.872;25.494;2022-12-07T07:37:39;96308.91;;;5.38;100.00
33185;BME280;19550;42.872;25.494;2022-12-07T07:40:07;96307.97;;;5.47;100.00
33185;BME280;19550;42.872;25.494;2022-12-07T07:42:35;96310.56;;;5.63;100.00
33185;BME280;19550;42.872;25.494;2022-12-07T07:45:03;96316.19;;;5.76;100.00
33185;BME280;19550;42.872;25.494;2022-12-07T07:47:30;96315.19;;;5.96;100.00
33185;BME280;19550;42.872;25.494;2022-12-07T07:49:57;96309.25;;;6.08;100.00
33185;BME280;19550;42.872;25.494;2022-12-07T07:52:23;96320.78;;;6.10;100.00
33185;BME280;19550;42.872;25.494;2022-12-07T07:54:50;96299.00;;;6.13;100.00
33185;BME280;19550;42.872;25.494;2022-12-07T07:57:17;96318.06;;;6.28;100.00
33185;BME280;19550;42.872;25.494;2022-12-07T07:59:45;96301.09;;;6.21;100.00
33185;BME280;19550;42.872;25.494;2022-12-07T08:02:14;96317.41;;;6.36;100.00
33185;BME280;19550;42.872;25.494;2022-12-07T08:04:41;96316.53;;;6.41;100.00
33185;BME280;19550;42.872;25.494;2022-12-07T08:07:09;96313.69;;;6.46;100.00
33185;BME280;19550;42.872;25.494;2022-12-07T08:09:35;96320.38;;;6.59;100.00
33185;BME280;19550;42.872;25.494;2022-12-07T08:12:03;96320.03;;;6.65;100.00
33185;BME280;19550;42.872;25.494;2022-12-07T08:14:30;96310.19;;;6.59;100.00
33185;BME280;19550;42.872;25.494;2022-12-07T08:16:58;96316.59;;;6.73;100.00
33185;BME280;19550;42.872;25.494;2022-12-07T08:19:25;96304.91;;;6.82;100.00
33185;BME280;19550;42.872;25.494;2022-12-07T08:21:52;96299.31;;;6.87;100.00
33185;BME280;19550;42.872;25.494;2022-12-07T08:24:20;96280.41;;;6.80;100.00
33185;BME280;19550;42.872;25.494;2022-12-07T08:26:47;96296.25;;;7.07;100.00
33185;BME280;19550;42.872;25.494;2022-12-07T08:29:15;96296.81;;;7.23;100.00
33185;BME280;19550;42.872;25.494;2022-12-07T08:31:42;96298.78;;;7.36;100.00
33185;BME280;19550;42.872;25.494;2022-12-07T08:34:11;96288.09;;;7.62;100.00
33185;BME280;19550;42.872;25.494;2022-12-07T08:36:39;96282.31;;;7.77;100.00
33185;BME280;19550;42.872;25.494;2022-12-07T08:39:06;96286.19;;;8.03;100.00
33185;BME280;19550;42.872;25.494;2022-12-07T08:41:33;96286.38;;;8.20;100.00
33185;BME280;19550;42.872;25.494;2022-12-07T08:44:00;96286.22;;;8.30;100.00
33185;BME280;19550;42.872;25.494;2022-12-07T08:46:30;96281.38;;;8.36;100.00
33185;BME280;19550;42.872;25.494;2022-12-07T08:49:04;96277.47;;;8.51;100.00
33185;BME280;19550;42.872;25.494;2022-12-07T08:51:33;96263.16;;;8.49;100.00
33185;BME280;19550;42.872;25.494;2022-12-07T08:54:01;96270.34;;;8.72;100.00
33185;BME280;19550;42.872;25.494;2022-12-07T08:56:30;96266.00;;;8.80;100.00
33185;BME280;19550;42.872;25.494;2022-12-07T08:58:57;96274.63;;;9.00;100.00
33185;BME280;19550;42.872;25.494;2022-12-07T09:01:24;96273.59;;;9.10;100.00
33185;BME280;19550;42.872;25.494;2022-12-07T09:03:52;96278.03;;;9.20;100.00
33185;BME280;19550;42.872;25.494;2022-12-07T09:06:19;96272.50;;;9.20;100.00
33185;BME280;19550;42.872;25.494;2022-12-07T09:08:51;96268.09;;;9.18;100.00
33185;BME280;19550;42.872;25.494;2022-12-07T09:11:20;96259.19;;;9.22;100.00
33185;BME280;19550;42.872;25.494;2022-12-07T09:13:47;96251.41;;;9.24;100.00
33185;BME280;19550;42.872;25.494;2022-12-07T09:16:14;96242.44;;;9.27;100.00
33185;BME280;19550;42.872;25.494;2022-12-07T09:18:41;96250.06;;;9.52;100.00
33185;BME280;19550;42.872;25.494;2022-12-07T09:21:08;96251.81;;;9.70;100.00
33185;BME280;19550;42.872;25.494;2022-12-07T09:23:35;96245.34;;;9.83;100.00
33185;BME280;19550;42.872;25.494;2022-12-07T09:26:04;96240.66;;;9.92;100.00
33185;BME280;19550;42.872;25.494;2022-12-07T09:28:31;96245.09;;;10.02;100.00
33185;BME280;19550;42.872;25.494;2022-12-07T09:30:58;96239.91;;;10.09;100.00
33185;BME280;19550;42.872;25.494;2022-12-07T09:33:25;96236.38;;;10.26;100.00
33185;BME280;19550;42.872;25.494;2022-12-07T09:35:52;96230.88;;;10.34;100.00
33185;BME280;19550;42.872;25.494;2022-12-07T09:38:19;96240.31;;;10.51;100.00
33185;BME280;19550;42.872;25.494;2022-12-07T09:40:47;96234.47;;;10.61;99.60
33185;BME280;19550;42.872;25.494;2022-12-07T09:43:17;96234.81;;;10.68;99.45
33185;BME280;19550;42.872;25.494;2022-12-07T09:45:46;96225.84;;;10.62;99.23
33185;BME280;19550;42.872;25.494;2022-12-07T09:48:17;96212.97;;;10.66;99.48
33185;BME280;19550;42.872;25.494;2022-12-07T09:50:46;96197.63;;;10.60;100.00
33185;BME280;19550;42.872;25.494;2022-12-07T09:53:17;96207.44;;;10.75;100.00
33185;BME280;19550;42.872;25.494;2022-12-07T09:55:45;96203.03;;;10.83;98.65
33185;BME280;19550;42.872;25.494;2022-12-07T09:58:19;96203.66;;;10.80;98.90
33185;BME280;19550;42.872;25.494;2022-12-07T10:00:46;96201.72;;;10.80;100.00
33185;BME280;19550;42.872;25.494;2022-12-07T10:03:13;96200.72;;;10.85;100.00
33185;BME280;19550;42.872;25.494;2022-12-07T10:05:43;96179.38;;;10.59;100.00
33185;BME280;19550;42.872;25.494;2022-12-07T10:08:12;96191.75;;;10.70;99.93
33185;BME280;19550;42.872;25.494;2022-12-07T10:10:39;96202.06;;;10.70;100.00
33185;BME280;19550;42.872;25.494;2022-12-07T10:13:08;96200.06;;;10.70;99.52
33185;BME280;19550;42.872;25.494;2022-12-07T10:15:48;96192.56;;;10.71;100.00
33185;BME280;19550;42.872;25.494;2022-12-07T10:18:28;96184.28;;;10.62;100.00
33185;BME280;19550;42.872;25.494;2022-12-07T10:21:10;96183.94;;;10.72;100.00
33185;BME280;19550;42.872;25.494;2022-12-07T10:23:39;96186.88;;;10.76;100.00
33185;BME280;19550;42.872;25.494;2022-12-07T10:26:21;96185.72;;;10.86;100.00
33185;BME280;19550;42.872;25.494;2022-12-07T10:28:52;96173.75;;;11.11;98.83
33185;BME280;19550;42.872;25.494;2022-12-07T10:31:22;96171.59;;;11.34;96.48
33185;BME280;19550;42.872;25.494;2022-12-07T10:33:50;96171.06;;;11.49;95.81
33185;BME280;19550;42.872;25.494;2022-12-07T10:36:23;96173.31;;;11.55;95.48
33185;BME280;19550;42.872;25.494;2022-12-07T10:38:52;96168.91;;;11.54;100.00
33185;BME280;19550;42.872;25.494;2022-12-07T10:41:20;96168.91;;;11.54;100.00
33185;BME280;19550;42.872;25.494;2022-12-07T10:43:49;96166.34;;;11.49;99.24
33185;BME280;19550;42.872;25.494;2022-12-07T10:52:35;96172.84;;;11.53;92.32
33185;BME280;19550;42.872;25.494;2022-12-07T10:55:17;96161.66;;;11.79;91.24
33185;BME280;19550;42.872;25.494;2022-12-07T10:57:54;96156.19;;;11.91;94.42
33185;BME280;19550;42.872;25.494;2022-12-07T11:00:24;96161.81;;;12.04;94.46
33185;BME280;19550;42.872;25.494;2022-12-07T11:05:48;96147.16;;;12.24;90.26
33185;BME280;19550;42.872;25.494;2022-12-07T11:08:37;96140.59;;;12.28;88.90
33185;BME280;19550;42.872;25.494;2022-12-07T11:11:09;96135.78;;;12.38;88.94
33185;BME280;19550;42.872;25.494;2022-12-07T11:13:46;96134.34;;;12.31;89.25
33185;BME280;19550;42.872;25.494;2022-12-07T11:16:24;96135.50;;;12.30;89.20
33185;BME280;19550;42.872;25.494;2022-12-07T11:21:50;96133.06;;;12.08;89.06
33185;BME280;19550;42.872;25.494;2022-12-07T11:24:27;96134.25;;;11.99;90.61
33185;BME280;19550;42.872;25.494;2022-12-07T11:27:07;96130.63;;;12.07;91.30
33185;BME280;19550;42.872;25.494;2022-12-07T11:30:00;96118.59;;;11.94;93.86
33185;BME280;19550;42.872;25.494;2022-12-07T11:35:30;96116.66;;;11.94;93.60
33185;BME280;19550;42.872;25.494;2022-12-07T11:38:12;96104.03;;;11.97;96.17
33185;BME280;19550;42.872;25.494;2022-12-07T11:40:41;96099.66;;;11.96;98.97
33185;BME280;19550;42.872;25.494;2022-12-07T11:43:18;96105.03;;;11.92;98.72
33185;BME280;19550;42.872;25.494;2022-12-07T11:45:51;96098.09;;;12.07;97.10
33185;BME280;19550;42.872;25.494;2022-12-07T11:48:24;96088.34;;;12.22;89.88
33185;BME280;19550;42.872;25.494;2022-12-07T11:50:57;96090.84;;;12.36;90.42
33185;BME280;19550;42.872;25.494;2022-12-07T11:53:28;96104.22;;;12.42;91.92
33185;BME280;19550;42.872;25.494;2022-12-07T11:55:59;96094.09;;;12.38;92.17
33185;BME280;19550;42.872;25.494;2022-12-07T11:58:40;96090.53;;;12.16;92.86
33185;BME280;19550;42.872;25.494;2022-12-07T12:01:18;96097.41;;;12.10;91.44
33185;BME280;19550;42.872;25.494;2022-12-07T12:03:50;96090.63;;;11.99;92.10
33185;BME280;19550;42.872;25.494;2022-12-07T12:06:36;96086.94;;;11.86;92.32
33185;BME280;19550;42.872;25.494;2022-12-07T12:09:06;96086.00;;;11.82;93.62
33185;BME280;19550;42.872;25.494;2022-12-07T12:11:52;96089.47;;;11.71;94.67
33185;BME280;19550;42.872;25.494;2022-12-07T12:14:40;96083.44;;;11.69;95.44
33185;BME280;19550;42.872;25.494;2022-12-07T12:17:30;96081.72;;;11.55;97.46
33185;BME280;19550;42.872;25.494;2022-12-07T12:20:13;96085.84;;;11.49;95.83
33185;BME280;19550;42.872;25.494;2022-12-07T12:22:47;96076.81;;;11.52;95.85
33185;BME280;19550;42.872;25.494;2022-12-07T12:25:21;96075.56;;;11.50;96.67
33185;BME280;19550;42.872;25.494;2022-12-07T12:27:50;96082.25;;;11.49;96.85
33185;BME280;19550;42.872;25.494;2022-12-07T12:30:32;96070.03;;;11.41;99.39
33185;BME280;19550;42.872;25.494;2022-12-07T12:33:05;96064.19;;;11.34;98.66
33185;BME280;19550;42.872;25.494;2022-12-07T12:35:34;96070.09;;;11.24;99.44
33185;BME280;19550;42.872;25.494;2022-12-07T12:38:27;96068.75;;;11.30;98.46
33185;BME280;19550;42.872;25.494;2022-12-07T12:40:56;96072.19;;;11.36;99.22
33185;BME280;19550;42.872;25.494;2022-12-07T12:43:43;96060.59;;;11.34;99.33
33185;BME280;19550;42.872;25.494;2022-12-07T12:46:37;96067.16;;;11.29;96.99
33185;BME280;19550;42.872;25.494;2022-12-07T12:55:29;96065.94;;;11.09;100.00
33185;BME280;19550;42.872;25.494;2022-12-07T12:58:29;96072.47;;;11.05;99.01
33185;BME280;19550;42.872;25.494;2022-12-07T13:04:47;96065.28;;;11.04;98.56
33185;BME280;19550;42.872;25.494;2022-12-07T13:10:34;96065.34;;;10.95;97.60
33185;BME280;19550;42.872;25.494;2022-12-07T13:13:04;96068.41;;;11.02;96.24
33185;BME280;19550;42.872;25.494;2022-12-07T13:15:34;96066.44;;;11.03;95.31
33185;BME280;19550;42.872;25.494;2022-12-07T13:18:04;96065.63;;;11.02;96.07
33185;BME280;19550;42.872;25.494;2022-12-07T13:20:41;96061.22;;;11.10;94.38
33185;BME280;19550;42.872;25.494;2022-12-07T13:23:09;96060.69;;;11.17;94.23
33185;BME280;19550;42.872;25.494;2022-12-07T13:25:45;96063.69;;;11.03;94.99
33185;BME280;19550;42.872;25.494;2022-12-07T13:28:16;96052.81;;;10.89;96.37
33185;BME280;19550;42.872;25.494;2022-12-07T13:30:59;96061.13;;;10.81;97.02
33185;BME280;19550;42.872;25.494;2022-12-07T13:33:28;96065.41;;;10.69;99.19
33185;BME280;19550;42.872;25.494;2022-12-07T13:35:55;96061.69;;;10.57;100.00
33185;BME280;19550;42.872;25.494;2022-12-07T13:38:26;96067.41;;;10.43;100.00